KLKV/LKV METAR and TAF weather

Enter ICAO airport designator
Station Type Date Time Source
KLKV METAR 2020/04/05 22:59 UTC NOAA

KLKV 052259Z AUTO 16017G24KT 10SM FEW018 BKN036 OVC070 04/03 A2955 RMK AO2 RAE54


Station Type Date Time Source
KLKV Decoded METAR 2020/04/05 22:59 UTC NOAA

Lakeview, Lake County Airport, OR, United States (KLKV) 42-10N 120-24W
Apr 05, 2020 - 06:59 PM EDT / 2020.04.05 2259 UTC
Wind: from the SSE (160 degrees) at 20 MPH (17 KT) gusting to 28 MPH (24 KT):0
Visibility: 10 mile(s):0
Sky conditions: overcast
Temperature: 39 F (4 C)
Dew Point: 37 F (3 C)
Relative Humidity: 93%
Pressure (altimeter): 29.55 in. Hg (1000 hPa)
ob: KLKV 052259Z AUTO 16017G24KT 10SM FEW018 BKN036 OVC070 04/03 A2955 RMK AO2 RAE54
cycle: 23

Station Type Date Time Source
KLKV TAF UTC NOAA

Error!

Example: see airport list